Terminal Aerodrome Forecast
Issued by NWS

Current Version | Previous Version | Graphics & Text | Print | Product List | Glossary On
Versions: 1 2 3 4 5 6 7 8 9 10 11 12 13 14 15 16 17 18 19 20 21
584
FTUS41 KILN 222320
TAFLUK
TAF
KLUK 222320Z 2300/2324 25007KT P6SM VCTS SCT035 BKN090CB
      TEMPO 2300/2304 2SM TSRA BKN025CB
     FM230400 26006KT 5SM -SHRA VCTS BKN050CB
      TEMPO 2304/2307 2SM TSRA OVC025CB
     FM231000 25008KT P6SM VCSH BKN070
     FM231800 28008KT P6SM BKN045=

USA.gov is the U.S. government's official web portal to all federal, state and local government web resources and services.